Vienna, VA

2:18 AM EST on February 26, 2017 (GMT -0500)
Whispering Wind Court Southeast | | Change Station

Elev 400 ft 38.90 °N, 77.26 °W | Updated 4 minutes ago

Mostly Cloudy
Mostly Cloudy
42.1 °F
Feels Like 42 °F
N
2.5
Wind Variable Wind from West
Gusts 8.7 mph

Today
High -- | Low -- °F
--% Chance of Precip.
Yesterday
High -- | Low -- °F
Precip. -- in
Pressure 29.92 in
Visibility 10.0 miles
Clouds Mostly Cloudy 4400 ft
Windchill 42 °F
Dew Point 27 °F
Humidity 54%
Rainfall 0.00 in
Snow Depth Not available.
6:45 AM 5:58 PM
Waning Crescent, 0% visible
METAR KIAD 260652Z 31015KT 10SM BKN044 04/M06 A2992 RMK AO2 SLP130 T00391056
Pressure 29.92 in
Visibility 10.0 miles
Clouds Mostly Cloudy 4400 ft
Windchill 42 °F
Dew Point 27 °F
Humidity 54%
Rainfall 0.00 in
Snow Depth Not available.
6:45 AM 5:58 PM
Waning Crescent, 0% visible
METAR KIAD 260652Z 31015KT 10SM BKN044 04/M06 A2992 RMK AO2 SLP130 T00391056

Get Your Daily Forecast Email!

Thanks for signing up!

Be on the lookout for a verification email in your inbox.

You'll start receiving the daily forecast at 8 AM.

×

10-Day Weather Forecast

Almanac

Astronomy

Feb. 26, 2017 Rise Set
Actual Time
Civil Twilight
Nautical Twilight
Astronomical Twilight
Moon
Length of Visible Light
Length of Day
Tomorrow will be .
, % of the Moon is Illuminated

Today's Extremes

State Highs State Lows

Community

WunderPhotos

Upload Photos

1,962,540 photos uploaded!

WunderBlog® & News

Nearby

Air Quality

  Air Quality AQ Index Pollutant
Not available.

Snow Depth

Station Depth Elevation

Earthquake Activity

City Distance Mag. Time & Date
Minimum magnitude displayed is 2.5.

Coastal Water Temperatures

Place Temperature

Stations

Nearby Weather Stations

Station Location Temp. Windchill Dew Point Humidity Wind Precip. Elev Updated Type
                   

Watches & Warnings

There are currently no watches in effect.